createdAt,value
2022-10-12T00:02:19.403Z,9.13
2022-10-12T00:05:22.496Z,9.08
2022-10-12T00:08:25.067Z,9.06
2022-10-12T00:11:30.185Z,8.96
2022-10-12T00:14:32.682Z,8.96
2022-10-12T00:17:35.378Z,8.98
2022-10-12T00:20:38.108Z,8.96
2022-10-12T00:23:41.696Z,8.92
2022-10-12T00:26:44.911Z,8.84
2022-10-12T00:29:47.575Z,8.70
2022-10-12T00:32:53.368Z,8.63
2022-10-12T00:35:56.110Z,8.59
2022-10-12T00:38:58.712Z,8.61
2022-10-12T00:42:01.141Z,8.55
2022-10-12T00:45:03.814Z,8.44
2022-10-12T00:48:06.396Z,8.42
2022-10-12T00:51:09.412Z,8.45
2022-10-12T00:54:15.979Z,8.40
2022-10-12T00:57:20.447Z,8.37
2022-10-12T01:00:24.130Z,8.32
2022-10-12T01:03:27.279Z,8.33
2022-10-12T01:06:30.916Z,8.41
2022-10-12T01:09:33.936Z,8.39
2022-10-12T01:12:37.611Z,8.39
2022-10-12T01:15:50.807Z,8.46
2022-10-12T01:19:14.924Z,8.45
2022-10-12T01:22:20.616Z,8.40
2022-10-12T01:25:55.242Z,8.38
2022-10-12T01:29:12.444Z,8.38
2022-10-12T01:32:28.107Z,8.38
2022-10-12T01:36:04.899Z,8.53
2022-10-12T01:39:18.175Z,8.47
2022-10-12T01:42:37.852Z,8.55
2022-10-12T01:45:40.659Z,8.60
2022-10-12T01:48:45.588Z,8.61
2022-10-12T01:52:04.381Z,8.55
2022-10-12T01:55:11.099Z,8.49
2022-10-12T01:58:52.334Z,8.37
2022-10-12T02:02:21.622Z,8.29
2022-10-12T02:05:38.783Z,8.35
2022-10-12T02:08:57.564Z,8.30
2022-10-12T02:12:05.378Z,8.30
2022-10-12T02:15:12.507Z,8.36
2022-10-12T02:18:19.082Z,8.47
2022-10-12T02:21:25.615Z,8.55
2022-10-12T02:24:29.706Z,8.48
2022-10-12T02:27:34.628Z,8.48
2022-10-12T02:31:02.465Z,8.46
2022-10-12T02:34:11.653Z,8.43
2022-10-12T02:38:03.640Z,8.43
2022-10-12T02:41:20.445Z,8.44
2022-10-12T02:44:29.826Z,8.38
2022-10-12T02:47:33.555Z,8.37
2022-10-12T02:50:36.774Z,8.42
2022-10-12T02:53:42.600Z,8.47
2022-10-12T02:56:46.560Z,8.53
2022-10-12T02:59:49.133Z,8.62
2022-10-12T03:02:51.630Z,8.59
2022-10-12T03:05:54.375Z,8.59
2022-10-12T03:08:57.726Z,8.65
2022-10-12T03:12:00.250Z,8.64
2022-10-12T03:15:02.763Z,8.65
2022-10-12T03:18:08.241Z,8.63
2022-10-12T03:21:11.322Z,8.59
2022-10-12T03:24:13.962Z,8.62
2022-10-12T03:27:16.730Z,8.72
2022-10-12T03:30:19.427Z,8.76
2022-10-12T03:33:31.025Z,8.65
2022-10-12T03:36:33.906Z,8.58
2022-10-12T03:39:36.342Z,8.56
2022-10-12T03:42:39.132Z,8.53
2022-10-12T03:45:41.499Z,8.42
2022-10-12T03:48:43.867Z,8.36
2022-10-12T03:51:46.335Z,8.40
2022-10-12T03:54:48.922Z,8.36
2022-10-12T03:57:51.414Z,8.33
2022-10-12T04:00:54.827Z,8.36
2022-10-12T04:03:57.565Z,8.31
2022-10-12T04:07:00.342Z,8.29
2022-10-12T04:10:03.656Z,8.30
2022-10-12T04:13:06.208Z,8.30
2022-10-12T04:16:10.940Z,8.31
2022-10-12T04:19:14.490Z,8.24
2022-10-12T04:22:19.720Z,8.28
2022-10-12T04:25:29.233Z,8.26
2022-10-12T04:28:33.177Z,8.27
2022-10-12T04:31:35.576Z,8.29
2022-10-12T04:34:38.101Z,8.25
2022-10-12T04:37:41.200Z,8.32
2022-10-12T04:40:48.423Z,8.34
2022-10-12T04:43:52.960Z,8.31
2022-10-12T04:46:56.920Z,8.30
2022-10-12T04:49:59.436Z,8.24
2022-10-12T04:53:02.010Z,8.33
2022-10-12T04:56:05.864Z,8.30
2022-10-12T04:59:08.262Z,8.28
2022-10-12T05:02:10.866Z,8.31
2022-10-12T05:05:13.612Z,8.32
2022-10-12T05:08:17.098Z,8.40
2022-10-12T05:11:19.945Z,8.32
2022-10-12T05:14:22.444Z,8.33
2022-10-12T05:17:25.389Z,8.33
2022-10-12T05:20:32.865Z,8.31
2022-10-12T05:23:36.206Z,8.28
2022-10-12T05:26:38.886Z,8.21
2022-10-12T05:29:41.351Z,8.17
2022-10-12T05:32:47.111Z,8.04
2022-10-12T05:35:54.635Z,8.09
2022-10-12T05:38:59.239Z,8.15
2022-10-12T05:42:01.883Z,8.20
2022-10-12T05:45:05.656Z,8.14
2022-10-12T05:48:08.182Z,8.18
2022-10-12T05:51:10.895Z,8.24
2022-10-12T05:54:14.012Z,8.33
2022-10-12T05:57:16.697Z,8.39
2022-10-12T06:00:19.436Z,8.43
2022-10-12T06:03:25.916Z,8.31
2022-10-12T06:06:29.287Z,8.18
2022-10-12T06:09:32.117Z,8.07
2022-10-12T06:12:37.473Z,8.01
2022-10-12T06:15:40.479Z,8.01
2022-10-12T06:18:43.515Z,7.94
2022-10-12T06:21:46.100Z,8.16
2022-10-12T06:24:49.331Z,8.15
2022-10-12T06:27:52.247Z,8.26
2022-10-12T06:30:59.284Z,8.34
2022-10-12T06:34:02.142Z,8.40
2022-10-12T06:37:05.366Z,8.57
2022-10-12T06:40:08.953Z,8.56
2022-10-12T06:43:12.006Z,8.64
2022-10-12T06:46:14.626Z,8.85
2022-10-12T06:49:18.230Z,9.16
2022-10-12T06:52:21.074Z,9.40
2022-10-12T06:55:25.231Z,9.47
2022-10-12T06:58:28.122Z,9.72
2022-10-12T07:01:30.667Z,9.64
2022-10-12T07:04:33.303Z,9.58
2022-10-12T07:07:37.146Z,9.78
2022-10-12T07:10:39.921Z,9.67
2022-10-12T07:13:42.385Z,9.68
2022-10-12T07:16:45.630Z,9.80
2022-10-12T07:19:50.888Z,9.60
2022-10-12T07:22:54.198Z,9.27
2022-10-12T07:25:57.167Z,9.32
2022-10-12T07:29:02.862Z,9.38
2022-10-12T07:32:07.228Z,9.47
2022-10-12T07:35:09.786Z,9.75
2022-10-12T07:38:13.471Z,9.92
2022-10-12T07:41:17.077Z,9.98
2022-10-12T07:44:21.063Z,9.94
2022-10-12T07:47:24.354Z,9.98
2022-10-12T07:50:30.005Z,9.97
2022-10-12T07:53:34.395Z,10.10
2022-10-12T07:56:37.827Z,10.30
2022-10-12T07:59:40.388Z,10.11
2022-10-12T08:02:43.936Z,9.97
2022-10-12T08:05:46.794Z,10.06
2022-10-12T08:08:50.478Z,10.13
2022-10-12T08:11:54.029Z,10.29
2022-10-12T08:14:56.772Z,10.27
2022-10-12T08:17:59.273Z,10.37
2022-10-12T08:21:05.079Z,10.45
2022-10-12T08:24:07.889Z,10.57
2022-10-12T08:27:11.005Z,10.68
2022-10-12T08:30:14.527Z,10.74
2022-10-12T08:33:21.083Z,10.99
2022-10-12T08:36:23.548Z,10.96
2022-10-12T08:39:29.490Z,10.90
2022-10-12T08:42:50.325Z,10.88
2022-10-12T08:46:01.241Z,10.94
2022-10-12T08:49:11.410Z,11.00
2022-10-12T08:52:24.936Z,11.14
2022-10-12T08:55:40.329Z,11.35
2022-10-12T08:58:42.822Z,11.39
2022-10-12T09:02:00.299Z,11.53
2022-10-12T09:05:09.620Z,11.66
2022-10-12T09:08:22.850Z,11.93
2022-10-12T09:11:37.487Z,11.75
2022-10-12T09:14:41.194Z,11.74
2022-10-12T09:17:54.027Z,11.85
2022-10-12T09:20:57.360Z,11.90
2022-10-12T09:24:00.148Z,12.01
2022-10-12T09:27:14.399Z,12.28
2022-10-12T09:30:19.901Z,12.17
2022-10-12T09:33:29.589Z,12.28
2022-10-12T09:36:35.312Z,12.45
2022-10-12T09:39:38.423Z,12.50
2022-10-12T09:42:41.027Z,12.69
2022-10-12T09:45:46.919Z,12.68
2022-10-12T09:49:01.676Z,12.72
2022-10-12T09:52:04.086Z,12.68
2022-10-12T09:58:50.711Z,13.42
2022-10-12T10:02:16.346Z,13.51
2022-10-12T10:05:26.834Z,13.56
2022-10-12T10:08:29.617Z,13.58
2022-10-12T10:11:33.135Z,13.59
2022-10-12T10:14:38.895Z,13.38
2022-10-12T10:17:41.250Z,13.24
2022-10-12T10:20:51.370Z,13.24
2022-10-12T10:23:56.884Z,13.31
2022-10-12T10:27:02.285Z,13.44
2022-10-12T10:30:30.041Z,13.19
2022-10-12T10:33:36.659Z,13.33
2022-10-12T10:36:56.466Z,13.22
2022-10-12T10:39:59.624Z,13.41
2022-10-12T10:43:07.155Z,13.56
2022-10-12T10:46:09.855Z,13.64
2022-10-12T10:49:24.639Z,13.77
2022-10-12T10:52:33.124Z,13.58
2022-10-12T10:55:42.376Z,13.62
2022-10-12T10:58:50.070Z,13.84
2022-10-12T11:01:59.297Z,13.80
2022-10-12T11:05:06.710Z,13.77
2022-10-12T11:08:21.862Z,13.90
2022-10-12T11:11:28.840Z,14.03
2022-10-12T11:14:37.471Z,14.22
2022-10-12T11:17:44.381Z,14.23
2022-10-12T11:20:48.641Z,14.16
2022-10-12T11:24:15.189Z,14.11
2022-10-12T11:27:52.820Z,13.93
2022-10-12T11:30:56.551Z,13.97
2022-10-12T11:34:06.388Z,14.19
2022-10-12T11:37:20.075Z,14.32
2022-10-12T11:44:44.389Z,14.71
2022-10-12T11:47:49.611Z,14.54
2022-10-12T11:50:52.501Z,14.59
2022-10-12T11:54:01.268Z,14.69
2022-10-12T11:57:15.531Z,14.91
2022-10-12T12:00:24.534Z,15.02
2022-10-12T12:03:46.073Z,15.09
2022-10-12T12:07:02.904Z,15.22
2022-10-12T12:10:28.137Z,15.25
2022-10-12T12:13:31.313Z,15.32
2022-10-12T12:16:34.954Z,15.61
2022-10-12T12:19:38.839Z,15.95
2022-10-12T12:22:52.577Z,16.07
2022-10-12T12:26:16.011Z,16.31
2022-10-12T12:29:28.732Z,16.26
2022-10-12T12:32:44.714Z,16.53
2022-10-12T12:36:06.794Z,16.72
2022-10-12T12:39:26.461Z,17.00
2022-10-12T12:42:34.789Z,17.02
2022-10-12T12:45:37.934Z,16.91
2022-10-12T12:48:40.813Z,17.15
2022-10-12T12:51:44.972Z,17.07
2022-10-12T12:55:19.212Z,17.19
2022-10-12T12:58:43.434Z,17.37
2022-10-12T13:02:10.862Z,17.19
2022-10-12T13:05:23.605Z,16.93
2022-10-12T13:08:45.035Z,16.87
2022-10-12T13:12:10.869Z,16.93
2022-10-12T13:15:29.219Z,17.11
2022-10-12T13:18:48.475Z,17.19
2022-10-12T13:21:54.101Z,17.18
2022-10-12T13:25:04.122Z,16.89
2022-10-12T13:28:21.726Z,16.86
2022-10-12T13:31:31.627Z,16.60
2022-10-12T13:34:42.300Z,16.60
2022-10-12T13:37:44.903Z,16.68
2022-10-12T13:41:03.318Z,16.52
2022-10-12T13:44:06.762Z,16.56
2022-10-12T13:47:23.516Z,16.57
2022-10-12T13:50:26.601Z,16.56
2022-10-12T13:53:40.424Z,16.50
2022-10-12T13:56:43.052Z,16.52
2022-10-12T13:59:45.824Z,16.48
2022-10-12T14:03:00.815Z,16.42
2022-10-12T14:06:04.508Z,16.69
2022-10-12T14:09:10.440Z,16.73
2022-10-12T14:12:13.690Z,16.97
2022-10-12T14:15:17.204Z,16.77
2022-10-12T14:18:43.147Z,16.69
2022-10-12T14:21:47.832Z,16.67
2022-10-12T14:24:51.730Z,16.57
2022-10-12T14:27:56.611Z,16.47
2022-10-12T14:30:59.484Z,16.63
2022-10-12T14:34:25.065Z,16.77
2022-10-12T14:37:29.089Z,16.75
2022-10-12T14:40:39.739Z,16.86
2022-10-12T14:43:42.186Z,16.87
2022-10-12T14:47:02.877Z,16.82
2022-10-12T14:50:09.224Z,16.75
2022-10-12T14:53:15.536Z,16.54
2022-10-12T14:56:20.937Z,16.42
2022-10-12T14:59:23.343Z,16.25
2022-10-12T15:02:26.801Z,16.21
2022-10-12T15:05:32.381Z,16.13
2022-10-12T15:08:35.020Z,16.03
2022-10-12T15:11:37.599Z,15.99
2022-10-12T15:14:40.480Z,15.89
2022-10-12T15:17:42.704Z,15.84
2022-10-12T15:20:49.150Z,15.71
2022-10-12T15:23:52.390Z,15.60
2022-10-12T15:26:54.766Z,15.59
2022-10-12T15:29:57.100Z,15.58
2022-10-12T15:33:00.255Z,15.44
2022-10-12T15:36:02.811Z,15.33
2022-10-12T15:39:05.411Z,15.31
2022-10-12T15:42:07.696Z,15.29
2022-10-12T15:45:19.835Z,15.12
2022-10-12T15:48:22.698Z,14.99
2022-10-12T15:51:26.272Z,14.80
2022-10-12T15:54:31.165Z,14.67
2022-10-12T15:57:33.681Z,14.59
2022-10-12T16:00:36.697Z,14.54
2022-10-12T16:03:39.663Z,14.53
2022-10-12T16:06:42.400Z,14.37
2022-10-12T16:09:44.803Z,14.35
2022-10-12T16:12:49.588Z,14.22
2022-10-12T16:15:54.928Z,14.10
2022-10-12T16:18:59.098Z,13.92
2022-10-12T16:22:03.643Z,13.98
2022-10-12T16:25:08.607Z,13.89
2022-10-12T16:28:12.195Z,13.85
2022-10-12T16:31:18.316Z,13.82
2022-10-12T16:34:20.946Z,13.77
2022-10-12T16:37:23.409Z,13.67
2022-10-12T16:40:26.387Z,13.80
2022-10-12T16:43:29.376Z,13.78
2022-10-12T16:46:32.300Z,13.65
2022-10-12T16:49:38.530Z,13.65
2022-10-12T16:52:43.760Z,13.51
2022-10-12T16:55:46.573Z,13.43
2022-10-12T16:58:53.680Z,13.41
2022-10-12T17:01:59.192Z,13.31
2022-10-12T17:05:10.598Z,13.21
2022-10-12T17:08:18.511Z,13.07
2022-10-12T17:11:23.038Z,12.99
2022-10-12T17:14:27.590Z,12.93
2022-10-12T17:17:31.765Z,12.98
2022-10-12T17:20:35.495Z,12.89
2022-10-12T17:23:41.623Z,12.82
2022-10-12T17:26:45.133Z,12.67
2022-10-12T17:29:50.165Z,12.56
2022-10-12T17:32:52.906Z,12.56
2022-10-12T17:35:59.646Z,12.56
2022-10-12T17:39:02.896Z,12.40
2022-10-12T17:42:09.260Z,12.47
2022-10-12T17:45:13.803Z,12.37
2022-10-12T17:48:18.890Z,12.34
2022-10-12T17:51:32.631Z,12.27
2022-10-12T17:54:38.738Z,12.16
2022-10-12T17:57:48.314Z,12.11
2022-10-12T18:00:51.883Z,11.99
2022-10-12T18:03:55.733Z,11.90
2022-10-12T18:07:03.079Z,11.87
2022-10-12T18:10:11.378Z,11.99
2022-10-12T18:13:15.915Z,11.94
2022-10-12T18:16:22.385Z,11.90
2022-10-12T18:19:25.319Z,12.00
2022-10-12T18:22:28.668Z,11.99
2022-10-12T18:25:31.641Z,12.04
2022-10-12T18:28:35.063Z,11.88
2022-10-12T18:31:40.344Z,11.63
2022-10-12T18:34:43.684Z,11.54
2022-10-12T18:37:47.077Z,11.72
2022-10-12T18:40:49.743Z,11.50
2022-10-12T18:43:57.961Z,11.54
2022-10-12T18:47:01.562Z,11.59
2022-10-12T18:50:09.586Z,11.61
2022-10-12T18:53:13.746Z,11.62
2022-10-12T18:56:19.406Z,11.52
2022-10-12T18:59:22.708Z,11.47
2022-10-12T19:02:25.318Z,11.34
2022-10-12T19:05:28.334Z,11.32
2022-10-12T19:08:32.042Z,11.43
2022-10-12T19:11:35.122Z,11.24
2022-10-12T19:14:38.249Z,11.22
2022-10-12T19:17:41.669Z,10.94
2022-10-12T19:20:44.529Z,10.93
2022-10-12T19:23:48.286Z,10.95
2022-10-12T19:26:52.355Z,10.85
2022-10-12T19:29:58.923Z,10.80
2022-10-12T19:33:01.580Z,10.72
2022-10-12T19:36:25.017Z,10.71
2022-10-12T19:39:28.663Z,10.73
2022-10-12T19:42:31.341Z,10.69
2022-10-12T19:45:41.429Z,10.66
2022-10-12T19:48:48.240Z,10.68
2022-10-12T19:51:54.016Z,10.64
2022-10-12T19:54:58.450Z,10.54
2022-10-12T19:58:03.708Z,10.49
2022-10-12T20:01:09.950Z,10.51
2022-10-12T20:04:12.830Z,10.45
2022-10-12T20:07:16.683Z,10.43
2022-10-12T20:10:19.492Z,10.58
2022-10-12T20:13:21.974Z,10.61
2022-10-12T20:16:25.078Z,10.47
2022-10-12T20:19:28.089Z,10.40
2022-10-12T20:22:30.622Z,10.35
2022-10-12T20:25:33.631Z,10.36
2022-10-12T20:28:37.593Z,10.47
2022-10-12T20:31:40.385Z,10.60
2022-10-12T20:34:43.216Z,10.60
2022-10-12T20:37:45.813Z,10.65
2022-10-12T20:40:48.457Z,10.64
2022-10-12T20:43:55.117Z,10.60
2022-10-12T20:46:58.023Z,10.57
2022-10-12T20:50:00.580Z,10.61
2022-10-12T20:53:03.129Z,10.55
2022-10-12T20:56:07.102Z,10.57
2022-10-12T20:59:10.530Z,10.59
2022-10-12T21:02:13.080Z,10.59
2022-10-12T21:05:15.644Z,10.52
2022-10-12T21:08:18.122Z,10.59
2022-10-12T21:11:21.336Z,10.58
2022-10-12T21:14:27.178Z,10.52
2022-10-12T21:17:29.516Z,10.47
2022-10-12T21:20:32.055Z,10.54
2022-10-12T21:23:39.912Z,10.42
2022-10-12T21:26:42.567Z,10.47
2022-10-12T21:29:44.960Z,10.42
2022-10-12T21:32:47.391Z,10.41
2022-10-12T21:35:49.723Z,10.39
2022-10-12T21:38:52.070Z,10.25
2022-10-12T21:41:54.649Z,10.32
2022-10-12T21:44:57.272Z,10.37
2022-10-12T21:47:59.813Z,10.16
2022-10-12T21:51:05.961Z,10.07
2022-10-12T21:54:08.693Z,10.15
2022-10-12T21:57:11.319Z,10.15
2022-10-12T22:00:14.205Z,10.11
2022-10-12T22:03:20.630Z,10.06
2022-10-12T22:06:24.372Z,10.21
2022-10-12T22:09:26.948Z,10.32
2022-10-12T22:12:30.518Z,10.39
2022-10-12T22:15:32.902Z,10.40
2022-10-12T22:18:48.274Z,10.42
2022-10-12T22:21:52.314Z,10.38
2022-10-12T22:24:54.864Z,10.29
2022-10-12T22:28:55.043Z,10.24
2022-10-12T22:32:17.632Z,10.27
2022-10-12T22:35:20.119Z,10.22
2022-10-12T22:38:22.789Z,10.28
2022-10-12T22:41:25.282Z,10.30
2022-10-12T22:44:28.008Z,10.34
2022-10-12T22:47:33.210Z,10.38
2022-10-12T22:50:36.652Z,10.35
2022-10-12T22:53:39.844Z,10.43
2022-10-12T22:56:42.387Z,10.39
2022-10-12T22:59:44.896Z,10.27
2022-10-12T23:02:47.597Z,10.14
2022-10-12T23:05:50.548Z,9.91
2022-10-12T23:08:53.188Z,9.90
2022-10-12T23:11:55.513Z,9.91
2022-10-12T23:14:57.882Z,9.79
2022-10-12T23:18:00.539Z,9.80
2022-10-12T23:21:08.456Z,9.73
2022-10-12T23:24:11.079Z,9.73
2022-10-12T23:27:16.019Z,9.60
2022-10-12T23:30:20.048Z,9.57
2022-10-12T23:33:25.596Z,9.63
2022-10-12T23:36:28.518Z,9.65
2022-10-12T23:39:30.991Z,9.63
2022-10-12T23:42:33.525Z,9.52
2022-10-12T23:45:37.171Z,9.60
2022-10-12T23:48:40.134Z,9.65
2022-10-12T23:51:42.962Z,9.64
2022-10-12T23:54:45.308Z,9.50
2022-10-12T23:57:47.737Z,9.56
